sensor_id;sensor_type;location;lat;lon;timestamp;P1;durP1;ratioP1;P2;durP2;ratioP2
43646;SDS011;56152;49.996;18.980;2023-05-10T00:03:27;11.68;;;7.10;;
43646;SDS011;56152;49.996;18.980;2023-05-10T00:08:34;9.50;;;6.45;;
43646;SDS011;56152;49.996;18.980;2023-05-10T00:13:36;11.23;;;5.97;;
43646;SDS011;56152;49.996;18.980;2023-05-10T00:18:40;10.25;;;5.40;;
43646;SDS011;56152;49.996;18.980;2023-05-10T00:23:44;12.07;;;7.22;;
43646;SDS011;56152;49.996;18.980;2023-05-10T00:28:49;12.98;;;7.43;;
43646;SDS011;56152;49.996;18.980;2023-05-10T00:33:52;10.80;;;6.05;;
43646;SDS011;56152;49.996;18.980;2023-05-10T00:39:06;11.77;;;6.85;;
43646;SDS011;56152;49.996;18.980;2023-05-10T00:44:08;15.20;;;8.25;;
43646;SDS011;56152;49.996;18.980;2023-05-10T00:49:18;19.05;;;6.93;;
43646;SDS011;56152;49.996;18.980;2023-05-10T00:54:22;15.82;;;7.82;;
43646;SDS011;56152;49.996;18.980;2023-05-10T00:59:24;12.75;;;7.43;;
43646;SDS011;56152;49.996;18.980;2023-05-10T01:04:27;14.00;;;7.55;;
43646;SDS011;56152;49.996;18.980;2023-05-10T01:09:31;10.82;;;6.47;;
43646;SDS011;56152;49.996;18.980;2023-05-10T01:14:34;12.95;;;8.02;;
43646;SDS011;56152;49.996;18.980;2023-05-10T01:19:38;10.25;;;7.13;;
43646;SDS011;56152;49.996;18.980;2023-05-10T01:35:58;16.05;;;9.05;;
43646;SDS011;56152;49.996;18.980;2023-05-10T01:41:08;13.98;;;7.80;;
43646;SDS011;56152;49.996;18.980;2023-05-10T01:46:16;11.02;;;7.45;;
43646;SDS011;56152;49.996;18.980;2023-05-10T01:51:31;10.93;;;7.03;;
43646;SDS011;56152;49.996;18.980;2023-05-10T01:56:40;13.90;;;7.85;;
43646;SDS011;56152;49.996;18.980;2023-05-10T02:01:45;16.63;;;8.68;;
43646;SDS011;56152;49.996;18.980;2023-05-10T02:06:50;14.52;;;8.90;;
43646;SDS011;56152;49.996;18.980;2023-05-10T02:11:54;15.93;;;8.50;;
43646;SDS011;56152;49.996;18.980;2023-05-10T02:17:00;15.50;;;8.20;;
43646;SDS011;56152;49.996;18.980;2023-05-10T02:22:10;17.30;;;9.90;;
43646;SDS011;56152;49.996;18.980;2023-05-10T02:27:13;14.10;;;8.65;;
43646;SDS011;56152;49.996;18.980;2023-05-10T02:32:21;12.25;;;7.75;;
43646;SDS011;56152;49.996;18.980;2023-05-10T02:37:30;13.93;;;8.65;;
43646;SDS011;56152;49.996;18.980;2023-05-10T02:42:35;14.27;;;8.88;;
43646;SDS011;56152;49.996;18.980;2023-05-10T02:47:38;15.55;;;9.57;;
43646;SDS011;56152;49.996;18.980;2023-05-10T02:52:46;12.80;;;7.90;;
43646;SDS011;56152;49.996;18.980;2023-05-10T02:57:56;20.85;;;11.63;;
43646;SDS011;56152;49.996;18.980;2023-05-10T03:02:59;12.90;;;7.38;;
43646;SDS011;56152;49.996;18.980;2023-05-10T03:08:04;15.93;;;9.85;;
43646;SDS011;56152;49.996;18.980;2023-05-10T03:13:07;21.55;;;9.32;;
43646;SDS011;56152;49.996;18.980;2023-05-10T03:18:22;14.95;;;8.70;;
43646;SDS011;56152;49.996;18.980;2023-05-10T03:23:33;14.80;;;7.43;;
43646;SDS011;56152;49.996;18.980;2023-05-10T03:28:47;18.45;;;10.43;;
43646;SDS011;56152;49.996;18.980;2023-05-10T03:33:52;15.20;;;9.80;;
43646;SDS011;56152;49.996;18.980;2023-05-10T03:39:02;18.33;;;8.23;;
43646;SDS011;56152;49.996;18.980;2023-05-10T03:44:07;14.70;;;7.90;;
43646;SDS011;56152;49.996;18.980;2023-05-10T03:49:10;17.33;;;10.20;;
43646;SDS011;56152;49.996;18.980;2023-05-10T03:54:16;18.45;;;8.73;;
43646;SDS011;56152;49.996;18.980;2023-05-10T03:59:18;15.35;;;8.23;;
43646;SDS011;56152;49.996;18.980;2023-05-10T04:04:20;14.30;;;8.73;;
43646;SDS011;56152;49.996;18.980;2023-05-10T04:09:27;17.55;;;9.57;;
43646;SDS011;56152;49.996;18.980;2023-05-10T04:14:29;15.45;;;8.65;;
43646;SDS011;56152;49.996;18.980;2023-05-10T04:19:34;18.38;;;9.15;;
43646;SDS011;56152;49.996;18.980;2023-05-10T04:24:39;15.88;;;8.98;;
43646;SDS011;56152;49.996;18.980;2023-05-10T04:29:42;12.82;;;7.88;;
43646;SDS011;56152;49.996;18.980;2023-05-10T04:34:51;11.75;;;7.72;;
43646;SDS011;56152;49.996;18.980;2023-05-10T04:39:55;11.73;;;6.25;;
43646;SDS011;56152;49.996;18.980;2023-05-10T04:45:05;13.48;;;7.55;;
43646;SDS011;56152;49.996;18.980;2023-05-10T04:50:09;12.45;;;5.53;;
43646;SDS011;56152;49.996;18.980;2023-05-10T04:55:13;15.75;;;6.72;;
43646;SDS011;56152;49.996;18.980;2023-05-10T05:00:16;15.98;;;7.20;;
43646;SDS011;56152;49.996;18.980;2023-05-10T05:05:19;27.15;;;13.43;;
43646;SDS011;56152;49.996;18.980;2023-05-10T05:10:32;11.63;;;6.88;;
43646;SDS011;56152;49.996;18.980;2023-05-10T05:15:35;11.00;;;6.38;;
43646;SDS011;56152;49.996;18.980;2023-05-10T05:20:43;12.82;;;6.85;;
43646;SDS011;56152;49.996;18.980;2023-05-10T05:25:49;9.88;;;6.03;;
43646;SDS011;56152;49.996;18.980;2023-05-10T05:30:52;12.18;;;6.40;;
43646;SDS011;56152;49.996;18.980;2023-05-10T05:35:55;11.07;;;6.05;;
43646;SDS011;56152;49.996;18.980;2023-05-10T05:41:04;10.43;;;6.10;;
43646;SDS011;56152;49.996;18.980;2023-05-10T05:46:14;9.30;;;5.22;;
43646;SDS011;56152;49.996;18.980;2023-05-10T05:51:21;9.80;;;5.40;;
43646;SDS011;56152;49.996;18.980;2023-05-10T05:56:26;10.43;;;5.20;;
43646;SDS011;56152;49.996;18.980;2023-05-10T06:01:30;8.45;;;4.75;;
43646;SDS011;56152;49.996;18.980;2023-05-10T06:06:33;10.30;;;5.05;;
43646;SDS011;56152;49.996;18.980;2023-05-10T06:11:38;8.27;;;5.10;;
43646;SDS011;56152;49.996;18.980;2023-05-10T06:16:43;8.05;;;4.13;;
43646;SDS011;56152;49.996;18.980;2023-05-10T06:21:52;7.35;;;4.28;;
43646;SDS011;56152;49.996;18.980;2023-05-10T06:32:04;6.72;;;4.32;;
43646;SDS011;56152;49.996;18.980;2023-05-10T06:37:08;8.50;;;4.47;;
43646;SDS011;56152;49.996;18.980;2023-05-10T06:42:16;5.93;;;3.95;;
43646;SDS011;56152;49.996;18.980;2023-05-10T06:47:25;8.90;;;3.80;;
43646;SDS011;56152;49.996;18.980;2023-05-10T06:52:27;6.38;;;3.47;;
43646;SDS011;56152;49.996;18.980;2023-05-10T06:57:34;5.88;;;3.67;;
43646;SDS011;56152;49.996;18.980;2023-05-10T07:02:42;5.55;;;3.72;;
43646;SDS011;56152;49.996;18.980;2023-05-10T07:07:47;5.43;;;3.63;;
43646;SDS011;56152;49.996;18.980;2023-05-10T07:13:00;7.07;;;3.80;;
43646;SDS011;56152;49.996;18.980;2023-05-10T07:18:07;5.78;;;3.72;;
43646;SDS011;56152;49.996;18.980;2023-05-10T07:23:21;5.90;;;3.00;;
43646;SDS011;56152;49.996;18.980;2023-05-10T07:28:37;6.47;;;4.20;;
43646;SDS011;56152;49.996;18.980;2023-05-10T07:33:42;8.48;;;3.53;;
43646;SDS011;56152;49.996;18.980;2023-05-10T07:38:47;11.98;;;4.68;;
43646;SDS011;56152;49.996;18.980;2023-05-10T07:43:57;8.00;;;3.40;;
43646;SDS011;56152;49.996;18.980;2023-05-10T07:54:08;9.43;;;3.17;;
43646;SDS011;56152;49.996;18.980;2023-05-10T07:59:16;7.82;;;3.28;;
43646;SDS011;56152;49.996;18.980;2023-05-10T08:04:28;5.13;;;2.70;;
43646;SDS011;56152;49.996;18.980;2023-05-10T08:09:32;8.50;;;4.70;;
43646;SDS011;56152;49.996;18.980;2023-05-10T08:14:50;4.63;;;3.17;;
43646;SDS011;56152;49.996;18.980;2023-05-10T08:19:55;5.88;;;3.10;;
43646;SDS011;56152;49.996;18.980;2023-05-10T08:25:02;8.27;;;2.97;;
43646;SDS011;56152;49.996;18.980;2023-05-10T08:30:21;5.22;;;3.20;;
43646;SDS011;56152;49.996;18.980;2023-05-10T08:35:26;9.02;;;3.35;;
43646;SDS011;56152;49.996;18.980;2023-05-10T08:40:36;12.57;;;4.15;;
43646;SDS011;56152;49.996;18.980;2023-05-10T08:45:51;7.45;;;4.18;;
43646;SDS011;56152;49.996;18.980;2023-05-10T08:50:54;8.15;;;3.60;;
43646;SDS011;56152;49.996;18.980;2023-05-10T08:56:05;6.65;;;3.55;;
43646;SDS011;56152;49.996;18.980;2023-05-10T09:06:35;5.05;;;2.88;;
43646;SDS011;56152;49.996;18.980;2023-05-10T09:11:39;3.97;;;2.85;;
43646;SDS011;56152;49.996;18.980;2023-05-10T09:16:57;7.72;;;3.15;;
43646;SDS011;56152;49.996;18.980;2023-05-10T09:22:08;5.45;;;3.13;;
43646;SDS011;56152;49.996;18.980;2023-05-10T09:27:21;9.02;;;3.10;;
43646;SDS011;56152;49.996;18.980;2023-05-10T09:32:40;7.25;;;4.07;;
43646;SDS011;56152;49.996;18.980;2023-05-10T09:37:46;5.60;;;3.40;;
43646;SDS011;56152;49.996;18.980;2023-05-10T09:42:55;9.65;;;3.80;;
43646;SDS011;56152;49.996;18.980;2023-05-10T09:48:02;6.35;;;4.03;;
43646;SDS011;56152;49.996;18.980;2023-05-10T09:53:06;5.47;;;3.60;;
43646;SDS011;56152;49.996;18.980;2023-05-10T09:58:09;7.25;;;3.00;;
43646;SDS011;56152;49.996;18.980;2023-05-10T10:03:15;3.20;;;2.60;;
43646;SDS011;56152;49.996;18.980;2023-05-10T10:08:19;8.10;;;3.00;;
43646;SDS011;56152;49.996;18.980;2023-05-10T10:13:22;6.45;;;2.85;;
43646;SDS011;56152;49.996;18.980;2023-05-10T10:18:27;8.15;;;4.03;;
43646;SDS011;56152;49.996;18.980;2023-05-10T10:23:31;5.70;;;2.70;;
43646;SDS011;56152;49.996;18.980;2023-05-10T10:28:35;6.25;;;3.15;;
43646;SDS011;56152;49.996;18.980;2023-05-10T10:33:59;4.05;;;2.10;;
43646;SDS011;56152;49.996;18.980;2023-05-10T10:39:08;4.00;;;2.45;;
43646;SDS011;56152;49.996;18.980;2023-05-10T10:44:25;5.10;;;2.90;;
43646;SDS011;56152;49.996;18.980;2023-05-10T10:56:04;3.58;;;2.70;;
43646;SDS011;56152;49.996;18.980;2023-05-10T11:01:11;3.00;;;2.50;;
43646;SDS011;56152;49.996;18.980;2023-05-10T11:06:16;5.82;;;2.80;;
43646;SDS011;56152;49.996;18.980;2023-05-10T11:11:38;5.28;;;2.42;;
43646;SDS011;56152;49.996;18.980;2023-05-10T11:16:55;8.25;;;2.70;;
43646;SDS011;56152;49.996;18.980;2023-05-10T11:22:11;2.92;;;2.15;;
43646;SDS011;56152;49.996;18.980;2023-05-10T11:27:16;4.93;;;2.50;;
43646;SDS011;56152;49.996;18.980;2023-05-10T11:32:18;5.55;;;2.90;;
43646;SDS011;56152;49.996;18.980;2023-05-10T11:37:21;6.63;;;2.72;;
43646;SDS011;56152;49.996;18.980;2023-05-10T11:42:34;2.88;;;2.03;;
43646;SDS011;56152;49.996;18.980;2023-05-10T11:47:39;3.15;;;2.40;;
43646;SDS011;56152;49.996;18.980;2023-05-10T11:52:43;4.28;;;2.40;;
43646;SDS011;56152;49.996;18.980;2023-05-10T11:57:49;3.80;;;2.38;;
43646;SDS011;56152;49.996;18.980;2023-05-10T12:02:54;5.07;;;2.03;;
43646;SDS011;56152;49.996;18.980;2023-05-10T12:08:15;5.50;;;1.98;;
43646;SDS011;56152;49.996;18.980;2023-05-10T12:13:23;10.10;;;2.85;;
43646;SDS011;56152;49.996;18.980;2023-05-10T12:18:27;4.63;;;2.20;;
43646;SDS011;56152;49.996;18.980;2023-05-10T12:23:31;3.08;;;2.00;;
43646;SDS011;56152;49.996;18.980;2023-05-10T12:28:39;12.38;;;2.25;;
43646;SDS011;56152;49.996;18.980;2023-05-10T12:33:41;6.40;;;2.50;;
43646;SDS011;56152;49.996;18.980;2023-05-10T12:38:45;9.02;;;2.40;;
43646;SDS011;56152;49.996;18.980;2023-05-10T12:43:50;5.53;;;3.10;;
43646;SDS011;56152;49.996;18.980;2023-05-10T12:48:53;7.45;;;2.13;;
43646;SDS011;56152;49.996;18.980;2023-05-10T12:53:56;3.92;;;2.13;;
43646;SDS011;56152;49.996;18.980;2023-05-10T12:59:02;3.53;;;2.08;;
43646;SDS011;56152;49.996;18.980;2023-05-10T13:04:05;3.72;;;2.15;;
43646;SDS011;56152;49.996;18.980;2023-05-10T13:09:12;5.55;;;2.40;;
43646;SDS011;56152;49.996;18.980;2023-05-10T13:14:18;6.05;;;1.90;;
43646;SDS011;56152;49.996;18.980;2023-05-10T13:19:22;6.00;;;1.98;;
43646;SDS011;56152;49.996;18.980;2023-05-10T13:24:24;7.28;;;2.05;;
43646;SDS011;56152;49.996;18.980;2023-05-10T13:29:28;9.05;;;2.40;;
43646;SDS011;56152;49.996;18.980;2023-05-10T13:34:30;4.20;;;2.13;;
43646;SDS011;56152;49.996;18.980;2023-05-10T13:39:37;4.57;;;2.05;;
43646;SDS011;56152;49.996;18.980;2023-05-10T13:50:13;3.38;;;2.17;;
43646;SDS011;56152;49.996;18.980;2023-05-10T13:55:16;5.47;;;2.33;;
43646;SDS011;56152;49.996;18.980;2023-05-10T14:00:19;6.13;;;2.03;;
43646;SDS011;56152;49.996;18.980;2023-05-10T14:05:22;6.57;;;2.50;;
43646;SDS011;56152;49.996;18.980;2023-05-10T14:10:24;5.40;;;2.85;;
43646;SDS011;56152;49.996;18.980;2023-05-10T14:15:29;3.25;;;1.77;;
43646;SDS011;56152;49.996;18.980;2023-05-10T14:20:35;2.63;;;2.10;;
43646;SDS011;56152;49.996;18.980;2023-05-10T14:25:37;5.70;;;2.22;;
43646;SDS011;56152;49.996;18.980;2023-05-10T14:30:46;5.05;;;1.98;;
43646;SDS011;56152;49.996;18.980;2023-05-10T14:35:48;5.95;;;2.05;;
43646;SDS011;56152;49.996;18.980;2023-05-10T14:40:50;5.05;;;1.90;;
43646;SDS011;56152;49.996;18.980;2023-05-10T14:45:54;4.57;;;1.95;;
43646;SDS011;56152;49.996;18.980;2023-05-10T14:50:57;4.03;;;2.10;;
43646;SDS011;56152;49.996;18.980;2023-05-10T14:55:59;4.22;;;2.50;;
43646;SDS011;56152;49.996;18.980;2023-05-10T15:01:03;4.22;;;2.35;;
43646;SDS011;56152;49.996;18.980;2023-05-10T15:06:07;4.65;;;2.20;;
43646;SDS011;56152;49.996;18.980;2023-05-10T15:11:10;5.15;;;2.20;;
43646;SDS011;56152;49.996;18.980;2023-05-10T15:16:17;8.00;;;2.85;;
43646;SDS011;56152;49.996;18.980;2023-05-10T15:21:21;4.15;;;2.63;;
43646;SDS011;56152;49.996;18.980;2023-05-10T15:26:24;4.50;;;2.88;;
43646;SDS011;56152;49.996;18.980;2023-05-10T15:31:28;5.18;;;2.42;;
43646;SDS011;56152;49.996;18.980;2023-05-10T15:36:31;2.22;;;1.80;;
43646;SDS011;56152;49.996;18.980;2023-05-10T15:41:47;6.53;;;2.50;;
43646;SDS011;56152;49.996;18.980;2023-05-10T15:46:51;3.75;;;2.60;;
43646;SDS011;56152;49.996;18.980;2023-05-10T15:51:58;9.10;;;4.00;;
43646;SDS011;56152;49.996;18.980;2023-05-10T15:57:03;9.27;;;2.38;;
43646;SDS011;56152;49.996;18.980;2023-05-10T16:02:10;6.50;;;3.90;;
43646;SDS011;56152;49.996;18.980;2023-05-10T16:07:12;5.80;;;2.10;;
43646;SDS011;56152;49.996;18.980;2023-05-10T16:12:25;4.90;;;2.63;;
43646;SDS011;56152;49.996;18.980;2023-05-10T16:17:32;4.75;;;3.45;;
43646;SDS011;56152;49.996;18.980;2023-05-10T16:22:34;7.78;;;3.10;;
43646;SDS011;56152;49.996;18.980;2023-05-10T16:27:37;4.68;;;2.70;;
43646;SDS011;56152;49.996;18.980;2023-05-10T16:32:43;8.30;;;2.65;;
43646;SDS011;56152;49.996;18.980;2023-05-10T16:37:46;6.28;;;2.78;;
43646;SDS011;56152;49.996;18.980;2023-05-10T16:42:50;5.43;;;3.42;;
43646;SDS011;56152;49.996;18.980;2023-05-10T16:47:55;6.40;;;3.05;;
43646;SDS011;56152;49.996;18.980;2023-05-10T16:52:59;6.88;;;2.60;;
43646;SDS011;56152;49.996;18.980;2023-05-10T16:58:05;2.70;;;2.17;;
43646;SDS011;56152;49.996;18.980;2023-05-10T17:03:13;7.78;;;2.80;;
43646;SDS011;56152;49.996;18.980;2023-05-10T17:08:17;4.63;;;3.47;;
43646;SDS011;56152;49.996;18.980;2023-05-10T17:13:19;6.13;;;2.45;;
43646;SDS011;56152;49.996;18.980;2023-05-10T17:18:25;8.00;;;3.17;;
43646;SDS011;56152;49.996;18.980;2023-05-10T17:23:27;12.15;;;4.10;;
43646;SDS011;56152;49.996;18.980;2023-05-10T17:28:30;14.80;;;4.22;;
43646;SDS011;56152;49.996;18.980;2023-05-10T17:33:36;17.48;;;5.43;;
43646;SDS011;56152;49.996;18.980;2023-05-10T17:38:38;7.68;;;3.03;;
43646;SDS011;56152;49.996;18.980;2023-05-10T17:43:42;5.40;;;2.72;;
43646;SDS011;56152;49.996;18.980;2023-05-10T17:48:47;6.72;;;2.63;;
43646;SDS011;56152;49.996;18.980;2023-05-10T17:53:49;7.32;;;3.47;;
43646;SDS011;56152;49.996;18.980;2023-05-10T17:58:53;8.38;;;3.97;;
43646;SDS011;56152;49.996;18.980;2023-05-10T18:03:56;6.25;;;3.13;;
43646;SDS011;56152;49.996;18.980;2023-05-10T18:08:58;7.10;;;3.70;;
43646;SDS011;56152;49.996;18.980;2023-05-10T18:14:00;6.65;;;3.15;;
43646;SDS011;56152;49.996;18.980;2023-05-10T18:19:05;8.07;;;3.00;;
43646;SDS011;56152;49.996;18.980;2023-05-10T18:24:09;10.13;;;3.60;;
43646;SDS011;56152;49.996;18.980;2023-05-10T18:29:12;16.77;;;4.20;;
43646;SDS011;56152;49.996;18.980;2023-05-10T18:34:18;57.60;;;25.83;;
43646;SDS011;56152;49.996;18.980;2023-05-10T18:39:19;118.53;;;93.65;;
43646;SDS011;56152;49.996;18.980;2023-05-10T18:44:22;311.80;;;253.88;;
43646;SDS011;56152;49.996;18.980;2023-05-10T18:49:27;303.10;;;246.38;;
43646;SDS011;56152;49.996;18.980;2023-05-10T18:54:30;497.05;;;359.67;;
43646;SDS011;56152;49.996;18.980;2023-05-10T18:59:43;68.28;;;46.15;;
43646;SDS011;56152;49.996;18.980;2023-05-10T19:04:47;58.13;;;46.28;;
43646;SDS011;56152;49.996;18.980;2023-05-10T19:09:58;80.47;;;68.00;;
43646;SDS011;56152;49.996;18.980;2023-05-10T19:15:04;28.42;;;14.90;;
43646;SDS011;56152;49.996;18.980;2023-05-10T19:20:11;22.25;;;8.98;;
43646;SDS011;56152;49.996;18.980;2023-05-10T19:25:14;17.58;;;7.00;;
43646;SDS011;56152;49.996;18.980;2023-05-10T19:30:16;12.20;;;7.25;;
43646;SDS011;56152;49.996;18.980;2023-05-10T19:35:20;26.02;;;16.00;;
43646;SDS011;56152;49.996;18.980;2023-05-10T19:40:24;17.90;;;8.65;;
43646;SDS011;56152;49.996;18.980;2023-05-10T19:45:27;93.95;;;84.30;;
43646;SDS011;56152;49.996;18.980;2023-05-10T19:55:40;54.90;;;35.38;;
43646;SDS011;56152;49.996;18.980;2023-05-10T20:00:42;21.65;;;13.88;;
43646;SDS011;56152;49.996;18.980;2023-05-10T20:05:46;22.67;;;14.30;;
43646;SDS011;56152;49.996;18.980;2023-05-10T20:10:48;55.83;;;43.28;;
43646;SDS011;56152;49.996;18.980;2023-05-10T20:15:53;16.25;;;9.48;;
43646;SDS011;56152;49.996;18.980;2023-05-10T20:20:59;9.88;;;6.05;;
43646;SDS011;56152;49.996;18.980;2023-05-10T20:26:02;10.40;;;4.97;;
43646;SDS011;56152;49.996;18.980;2023-05-10T20:31:05;8.48;;;4.47;;
43646;SDS011;56152;49.996;18.980;2023-05-10T20:36:10;10.60;;;4.72;;
43646;SDS011;56152;49.996;18.980;2023-05-10T20:41:15;9.20;;;4.55;;
43646;SDS011;56152;49.996;18.980;2023-05-10T20:46:27;8.32;;;4.97;;
43646;SDS011;56152;49.996;18.980;2023-05-10T20:51:31;9.00;;;4.90;;
43646;SDS011;56152;49.996;18.980;2023-05-10T20:56:38;10.35;;;3.97;;
43646;SDS011;56152;49.996;18.980;2023-05-10T21:01:41;9.85;;;4.13;;
43646;SDS011;56152;49.996;18.980;2023-05-10T21:06:46;8.10;;;3.83;;
43646;SDS011;56152;49.996;18.980;2023-05-10T21:11:48;6.93;;;4.10;;
43646;SDS011;56152;49.996;18.980;2023-05-10T21:16:52;7.43;;;4.68;;
43646;SDS011;56152;49.996;18.980;2023-05-10T21:22:00;7.40;;;4.65;;
43646;SDS011;56152;49.996;18.980;2023-05-10T21:27:02;11.93;;;4.95;;
43646;SDS011;56152;49.996;18.980;2023-05-10T21:32:10;12.57;;;5.13;;
43646;SDS011;56152;49.996;18.980;2023-05-10T21:37:15;7.30;;;4.15;;
43646;SDS011;56152;49.996;18.980;2023-05-10T21:42:18;12.93;;;4.88;;
43646;SDS011;56152;49.996;18.980;2023-05-10T21:47:22;10.65;;;5.15;;
43646;SDS011;56152;49.996;18.980;2023-05-10T21:52:28;10.25;;;4.75;;
43646;SDS011;56152;49.996;18.980;2023-05-10T21:57:30;11.68;;;5.47;;
43646;SDS011;56152;49.996;18.980;2023-05-10T22:02:33;7.15;;;4.55;;
43646;SDS011;56152;49.996;18.980;2023-05-10T22:07:37;9.80;;;5.18;;
43646;SDS011;56152;49.996;18.980;2023-05-10T22:12:39;11.65;;;5.45;;
43646;SDS011;56152;49.996;18.980;2023-05-10T22:17:42;8.00;;;4.40;;
43646;SDS011;56152;49.996;18.980;2023-05-10T22:22:48;6.97;;;4.13;;
43646;SDS011;56152;49.996;18.980;2023-05-10T22:27:50;5.93;;;3.45;;
43646;SDS011;56152;49.996;18.980;2023-05-10T22:32:53;6.55;;;4.82;;
43646;SDS011;56152;49.996;18.980;2023-05-10T22:37:59;7.88;;;4.45;;
43646;SDS011;56152;49.996;18.980;2023-05-10T22:43:01;9.57;;;5.65;;
43646;SDS011;56152;49.996;18.980;2023-05-10T22:48:05;6.45;;;4.22;;
43646;SDS011;56152;49.996;18.980;2023-05-10T22:53:11;11.80;;;5.05;;
43646;SDS011;56152;49.996;18.980;2023-05-10T22:58:13;8.15;;;5.25;;
43646;SDS011;56152;49.996;18.980;2023-05-10T23:03:15;18.27;;;8.35;;
43646;SDS011;56152;49.996;18.980;2023-05-10T23:08:20;11.15;;;5.50;;
43646;SDS011;56152;49.996;18.980;2023-05-10T23:13:25;11.55;;;5.78;;
43646;SDS011;56152;49.996;18.980;2023-05-10T23:18:28;11.32;;;6.43;;
43646;SDS011;56152;49.996;18.980;2023-05-10T23:23:33;10.10;;;6.35;;
43646;SDS011;56152;49.996;18.980;2023-05-10T23:28:36;10.23;;;5.97;;
43646;SDS011;56152;49.996;18.980;2023-05-10T23:33:38;18.52;;;8.07;;
43646;SDS011;56152;49.996;18.980;2023-05-10T23:38:44;13.43;;;6.28;;
43646;SDS011;56152;49.996;18.980;2023-05-10T23:43:47;14.50;;;6.28;;
43646;SDS011;56152;49.996;18.980;2023-05-10T23:48:49;11.60;;;6.53;;
43646;SDS011;56152;49.996;18.980;2023-05-10T23:53:54;10.38;;;5.78;;
43646;SDS011;56152;49.996;18.980;2023-05-10T23:58:56;12.50;;;6.60;;
